Time;durP1;ratioP1;P1;durP2;ratioP2;P2;SDS_P1;SDS_P2;PMS_P1;PMS_P2;Temp;Humidity;BMP_temperature;BMP_pressure;BME280_temperature;BME280_humidity;BME280_pressure;Samples;Min_cycle;Max_cycle;Signal;HPM_P1;HPM_P2
2022/05/11 00:01:21;;;;;;;9.40;5.07;;;;;;;;;;4993357;28;20088;-75
2022/05/11 00:03:46;;;;;;;8.15;5.35;;;;;;;;;;4992859;28;20038;-75
2022/05/11 00:06:11;;;;;;;7.78;5.47;;;;;;;;;;4992624;28;20173;-76
2022/05/11 00:08:37;;;;;;;6.97;5.25;;;;;;;;;;5005851;28;20125;-74
2022/05/11 00:11:04;;;;;;;8.32;5.55;;;;;;;;;;4992125;28;20547;-75
2022/05/11 00:13:30;;;;;;;11.20;5.90;;;;;;;;;;5007632;28;20452;-76
2022/05/11 00:15:55;;;;;;;7.25;5.25;;;;;;;;;;4992883;28;20038;-77
2022/05/11 00:18:20;;;;;;;9.82;5.60;;;;;;;;;;4992078;28;20484;-75
2022/05/11 00:20:46;;;;;;;8.03;5.07;;;;;;;;;;4992205;28;20058;-74
2022/05/11 00:23:11;;;;;;;8.37;5.80;;;;;;;;;;4992628;28;20268;-76
2022/05/11 00:25:36;;;;;;;11.20;5.70;;;;;;;;;;4992143;28;20769;-75
2022/05/11 00:28:01;;;;;;;9.30;5.15;;;;;;;;;;4994940;28;20275;-75
2022/05/11 00:30:28;;;;;;;6.78;5.10;;;;;;;;;;5008591;28;20057;-75
2022/05/11 00:32:56;;;;;;;10.18;5.45;;;;;;;;;;5007264;28;20045;-76
2022/05/11 00:35:22;;;;;;;7.97;5.50;;;;;;;;;;4992140;28;20069;-74
2022/05/11 00:37:47;;;;;;;10.98;5.70;;;;;;;;;;5006654;28;20290;-74
2022/05/11 00:40:13;;;;;;;10.00;5.55;;;;;;;;;;4991995;28;20030;-74
2022/05/11 00:42:38;;;;;;;14.43;5.28;;;;;;;;;;4992389;28;20046;-74
2022/05/11 00:45:04;;;;;;;9.27;5.53;;;;;;;;;;4990547;28;20035;-73
2022/05/11 00:47:32;;;;;;;7.60;5.20;;;;;;;;;;4992290;28;20052;-75
2022/05/11 00:50:09;;;;;;;9.02;5.18;;;;;;;;;;5006843;28;20069;-75
2022/05/11 00:52:43;;;;;;;7.55;5.15;;;;;;;;;;5007419;28;20030;-74
2022/05/11 00:55:14;;;;;;;8.75;5.03;;;;;;;;;;5007247;28;20046;-74
2022/05/11 00:57:46;;;;;;;12.15;5.70;;;;;;;;;;4992247;28;20511;-74
2022/05/11 01:00:12;;;;;;;7.60;5.55;;;;;;;10.84;nan;100951.94;4992054;28;20684;-74
2022/05/11 01:02:38;;;;;;;11.90;5.82;;;;;;;;;;4990964;28;20041;-74
2022/05/11 01:05:04;;;;;;;10.55;5.45;;;;;;;;;;4992036;28;20034;-75
2022/05/11 01:07:31;;;;;;;8.15;5.40;;;;;;;;;;4991900;28;20042;-74
2022/05/11 01:09:57;;;;;;;11.90;5.30;;;;;;;;;;4991728;28;20125;-74
2022/05/11 01:12:24;;;;;;;8.93;5.32;;;;;;;;;;4992181;28;20125;-74
2022/05/11 01:14:54;;;;;;;12.70;5.95;;;;;;;;;;4992338;28;20069;-75
2022/05/11 01:17:24;;;;;;;11.50;5.47;;;;;;;;;;4992529;28;20034;-75
2022/05/11 01:19:49;;;;;;;11.18;5.80;;;;;;;;;;5006726;28;20046;-74
2022/05/11 01:22:17;;;;;;;7.27;5.40;;;;;;;;;;5009930;28;20058;-75
2022/05/11 01:24:44;;;;;;;10.57;6.28;;;;;;;;;;5028051;28;20259;-74
2022/05/11 01:27:28;;;;;;;10.05;6.32;;;;;;;;;;5013068;28;20058;-74
2022/05/11 01:29:55;;;;;;;11.07;6.47;;;;;;;;;;5031734;28;20044;-74
2022/05/11 01:32:21;;;;;;;10.85;6.07;;;;;;;;;;5015136;28;20065;-75
2022/05/11 01:34:48;;;;;;;13.05;6.80;;;;;;;;;;5008953;28;20100;-73
2022/05/11 01:37:14;;;;;;;11.45;7.10;;;;;;;;;;5014676;28;20065;-74
2022/05/11 01:39:39;;;;;;;12.20;6.82;;;;;;;;;;5014100;28;20034;-74
2022/05/11 01:42:05;;;;;;;10.60;6.18;;;;;;;;;;5014324;28;20038;-74
2022/05/11 01:44:30;;;;;;;10.82;6.82;;;;;;;;;;5009690;28;20034;-74
2022/05/11 01:46:59;;;;;;;10.10;6.63;;;;;;;;;;5013561;28;20058;-75
2022/05/11 01:49:25;;;;;;;9.10;6.25;;;;;;;;;;5010842;28;20572;-74
2022/05/11 01:51:50;;;;;;;12.48;7.07;;;;;;;;;;5004807;28;20041;-74
2022/05/11 01:54:16;;;;;;;10.07;6.90;;;;;;;;;;5017596;28;20035;-74
2022/05/11 01:56:41;;;;;;;12.45;7.80;;;;;;;;;;5009695;28;20125;-74
2022/05/11 01:59:06;;;;;;;18.75;7.15;;;;;;;;;;4997946;28;20041;-74
2022/05/11 02:01:33;;;;;;;9.45;6.53;;;;;;;;;;4995960;28;20048;-74
2022/05/11 02:04:00;;;;;;;10.07;6.82;;;;;;;;;;5012127;28;20038;-74
2022/05/11 02:09:12;;;;;;;15.63;7.20;;;;;;;;;;4996347;28;20484;-73
2022/05/11 02:11:37;;;;;;;12.98;6.72;;;;;;;;;;4995268;28;20034;-74
2022/05/11 02:14:03;;;;;;;10.45;6.82;;;;;;;;;;4995123;28;20045;-74
2022/05/11 02:16:28;;;;;;;13.20;7.28;;;;;;;;;;4995091;28;20126;-74
2022/05/11 02:18:56;;;;;;;11.83;7.03;;;;;;;;;;4994922;28;20472;-75
2022/05/11 02:21:21;;;;;;;11.77;7.32;;;;;;;;;;4985271;28;20039;-74
2022/05/11 02:23:50;;;;;;;10.38;7.00;;;;;;;;;;4994598;28;20044;-75
2022/05/11 02:26:16;;;;;;;10.45;6.72;;;;;;;;;;4994558;28;20030;-76
2022/05/11 02:28:41;;;;;;;13.00;6.40;;;;;;;;;;4991389;28;20101;-75
2022/05/11 02:31:06;;;;;;;13.05;6.93;;;;;;;;;;4994350;28;20080;-76
2022/05/11 02:33:32;;;;;;;11.17;5.93;;;;;;;;;;4994192;28;20022;-75
2022/05/11 02:35:57;;;;;;;9.40;6.30;;;;;;;;;;4993944;28;20525;-74
2022/05/11 02:38:24;;;;;;;16.50;6.50;;;;;;;;;;4994598;28;20089;-74
2022/05/11 02:40:51;;;;;;;10.45;6.75;;;;;;;;;;4994144;28;20030;-74
2022/05/11 02:43:16;;;;;;;13.43;6.47;;;;;;;;;;4991207;28;20038;-74
2022/05/11 02:45:42;;;;;;;13.15;6.22;;;;;;;;;;4980041;28;20481;-74
2022/05/11 02:48:09;;;;;;;10.65;7.10;;;;;;;;;;4989662;28;20035;-74
2022/05/11 02:50:37;;;;;;;10.70;6.30;;;;;;;;;;4988432;28;20038;-74
2022/05/11 02:53:07;;;;;;;14.20;6.30;;;;;;;;;;4991708;28;20404;-75
2022/05/11 02:55:32;;;;;;;15.35;6.68;;;;;;;;;;5005516;28;20104;-75
2022/05/11 02:57:58;;;;;;;9.00;5.77;;;;;;;;;;4985698;28;20493;-74
2022/05/11 03:00:24;;;;;;;11.38;6.63;;;;;;;;;;4984450;28;20283;-74
2022/05/11 03:02:49;;;;;;;11.50;7.03;;;;;;;;;;5002532;28;20500;-73
2022/05/11 03:05:15;;;;;;;10.27;5.67;;;;;;;;;;5008500;28;20100;-76
2022/05/11 03:07:40;;;;;;;9.15;5.95;;;;;;;;;;4994167;28;20292;-75
2022/05/11 03:10:06;;;;;;;15.57;6.40;;;;;;;;;;5003175;28;20035;-74
2022/05/11 03:12:32;;;;;;;13.73;6.18;;;;;;;;;;4976675;28;20039;-73
2022/05/11 03:14:58;;;;;;;11.07;6.32;;;;;;;;;;4987501;28;20033;-76
2022/05/11 03:17:24;;;;;;;10.45;6.15;;;;;;;;;;5011267;28;20030;-75
2022/05/11 03:19:50;;;;;;;10.90;6.45;;;;;;;;;;5006762;28;20101;-75
2022/05/11 03:22:15;;;;;;;13.70;6.85;;;;;;;;;;4999398;28;20049;-76
2022/05/11 03:24:40;;;;;;;12.57;6.07;;;;;;;;;;4996416;28;20112;-75
2022/05/11 03:27:06;;;;;;;13.93;6.88;;;;;;;;;;4995125;28;20041;-75
2022/05/11 03:29:32;;;;;;;11.35;6.57;;;;;;;;;;4995268;28;20038;-73
2022/05/11 03:34:42;;;;;;;10.95;5.90;;;;;;;;;;4994336;28;20038;-72
2022/05/11 03:37:12;;;;;;;10.52;6.03;;;;;;;;;;4994047;28;20037;-70
2022/05/11 03:39:41;;;;;;;8.95;5.93;;;;;;;;;;4992475;28;20101;-70
2022/05/11 03:42:07;;;;;;;10.23;5.82;;;;;;;;;;4982845;28;20492;-69
2022/05/11 03:44:32;;;;;;;10.90;6.05;;;;;;;;;;4992541;28;20042;-68
2022/05/11 03:46:58;;;;;;;12.02;5.57;;;;;;;;;;4993881;28;20112;-70
2022/05/11 03:49:24;;;;;;;12.48;6.28;;;;;;;;;;4992516;28;20034;-69
2022/05/11 03:51:50;;;;;;;8.95;5.82;;;;;;;;;;4993866;28;20507;-69
2022/05/11 03:54:15;;;;;;;13.00;6.35;;;;;;;;;;4993789;28;20034;-69
2022/05/11 03:56:44;;;;;;;14.15;6.40;;;;;;;;;;4993240;28;20034;-69
2022/05/11 03:59:12;;;;;;;11.57;6.22;;;;;;;;;;5010280;28;20057;-68
2022/05/11 04:01:38;;;;;;;11.50;5.93;;;;;;;;;;4995130;28;20232;-68
2022/05/11 04:04:04;;;;;;;11.90;6.03;;;;;;;;;;5010406;28;20496;-68
2022/05/11 04:06:30;;;;;;;9.93;5.90;;;;;;;;;;4994668;28;20053;-68
2022/05/11 04:08:55;;;;;;;16.08;6.20;;;;;;;;;;5010949;28;20042;-70
2022/05/11 04:11:23;;;;;;;10.43;6.55;;;;;;;;;;5009069;28;20042;-67
2022/05/11 04:13:51;;;;;;;11.73;6.22;;;;;;;;;;4994509;28;20048;-69
2022/05/11 04:16:17;;;;;;;20.33;7.00;;;;;;;;;;4996463;28;20088;-69
2022/05/11 04:18:43;;;;;;;13.50;6.55;;;;;;;;;;4994314;28;20038;-70
2022/05/11 04:21:09;;;;;;;15.00;6.35;;;;;;;;;;4981849;28;20516;-69
2022/05/11 04:23:34;;;;;;;14.52;6.90;;;;;;;9.81;nan;100989.59;4972025;28;20109;-70
2022/05/11 04:26:00;;;;;;;10.30;6.40;;;;;;;;;;4977579;28;20073;-72
2022/05/11 04:28:25;;;;;;;15.57;7.35;;;;;;;;;;4983196;28;20026;-74
2022/05/11 04:30:50;;;;;;;19.73;6.75;;;;;;;;;;4967746;28;20026;-74
2022/05/11 04:33:16;;;;;;;11.15;6.00;;;;;;;;;;4975985;28;20042;-73
2022/05/11 04:35:41;;;;;;;14.13;6.07;;;;;;;;;;4969474;28;20034;-76
2022/05/11 04:38:07;;;;;;;16.98;6.80;;;;;;;;;;4964861;28;20266;-72
2022/05/11 04:40:34;;;;;;;14.82;6.88;;;;;;;;;;4975910;28;20502;-74
2022/05/11 04:43:05;;;;;;;14.55;5.97;;;;;;;;;;4977246;28;20058;-73
2022/05/11 04:45:30;;;;;;;10.75;5.82;;;;;;;;;;4981302;28;20066;-73
2022/05/11 04:47:55;;;;;;;16.97;6.17;;;;;;;;;;4996884;28;20126;-74
2022/05/11 04:50:20;;;;;;;15.10;6.40;;;;;;;;;;4996905;28;20011;-75
2022/05/11 04:52:46;;;;;;;15.60;6.75;;;;;;;;;;4993200;28;20340;-75
2022/05/11 04:55:11;;;;;;;34.67;7.18;;;;;;;;;;4994206;28;20022;-74
2022/05/11 04:57:36;;;;;;;15.80;6.33;;;;;;;;;;4994229;28;20030;-76
2022/05/11 05:00:09;;;;;;;10.63;6.13;;;;;;;;;;4976939;28;20272;-73
2022/05/11 05:02:34;;;;;;;14.73;6.40;;;;;;;;;;4992781;28;20050;-73
2022/05/11 05:05:00;;;;;;;18.55;6.20;;;;;;;;;;4989000;28;20031;-73
2022/05/11 05:07:26;;;;;;;21.00;6.65;;;;;;;;;;4986740;28;20030;-74
2022/05/11 05:09:51;;;;;;;14.35;6.82;;;;;;;;;;4987389;28;20093;-74
2022/05/11 05:12:17;;;;;;;16.83;6.25;;;;;;;;;;4990447;28;20109;-75
2022/05/11 05:14:42;;;;;;;12.68;5.70;;;;;;;;;;4981447;28;20046;-74
2022/05/11 05:17:09;;;;;;;15.82;6.15;;;;;;;;;;4969482;28;20066;-74
2022/05/11 05:19:39;;;;;;;15.05;6.32;;;;;;;;;;4972834;28;20058;-74
2022/05/11 05:22:04;;;;;;;13.13;5.88;;;;;;;;;;4994388;28;20042;-74
2022/05/11 05:24:30;;;;;;;17.42;6.70;;;;;;;;;;4994334;28;20045;-74
2022/05/11 05:26:56;;;;;;;24.77;6.63;;;;;;;;;;4996043;28;20400;-74
2022/05/11 05:32:06;;;;;;;21.08;5.95;;;;;;;11.47;nan;100949.22;4997299;28;20026;-73
2022/05/11 05:34:31;;;;;;;23.00;5.90;;;;;;;;;;4996079;28;20081;-73
2022/05/11 05:36:57;;;;;;;13.45;5.72;;;;;;;;;;4994473;28;20473;-75
2022/05/11 05:39:22;;;;;;;17.63;5.40;;;;;;;;;;4995724;28;20049;-74
2022/05/11 05:41:47;;;;;;;11.67;6.00;;;;;;;;;;4995146;28;20362;-76
2022/05/11 05:44:12;;;;;;;11.53;5.37;;;;;;;;;;4995519;28;20268;-74
2022/05/11 05:46:38;;;;;;;11.17;5.43;;;;;;;;;;4995561;28;20548;-75
2022/05/11 05:49:03;;;;;;;19.40;5.40;;;;;;;;;;4995353;28;20290;-74
2022/05/11 05:51:28;;;;;;;19.70;5.80;;;;;;;;;;4994447;28;20653;-72
2022/05/11 05:53:55;;;;;;;14.70;6.30;;;;;;;;;;4993863;28;20774;-74
2022/05/11 05:56:20;;;;;;;17.95;6.00;;;;;;;;;;5009699;28;20392;-73
2022/05/11 05:58:45;;;;;;;20.50;6.55;;;;;;;;;;4991678;28;20039;-74
2022/05/11 06:01:11;;;;;;;16.65;5.93;;;;;;;;;;4992986;28;20437;-73
2022/05/11 06:03:37;;;;;;;11.23;5.55;;;;;;;;;;4985984;28;20571;-74
2022/05/11 06:06:03;;;;;;;11.25;5.50;;;;;;;;;;4991899;28;20049;-74
2022/05/11 06:08:29;;;;;;;13.55;5.40;;;;;;;;;;4991915;28;20042;-74
2022/05/11 06:10:55;;;;;;;10.10;5.40;;;;;;;;;;4992165;28;20480;-73
2022/05/11 06:13:22;;;;;;;13.63;5.78;;;;;;;;;;4983808;28;20049;-73
2022/05/11 06:15:48;;;;;;;8.85;5.30;;;;;;;;;;4995273;28;20045;-75
2022/05/11 06:18:14;;;;;;;10.35;5.78;;;;;;;;;;4991508;28;20049;-75
2022/05/11 06:20:39;;;;;;;7.55;5.32;;;;;;;;;;4994501;28;20050;-77
2022/05/11 06:23:05;;;;;;;8.35;5.75;;;;;;;;;;4993679;28;20050;-75
2022/05/11 06:25:31;;;;;;;18.65;6.93;;;;;;;;;;5012276;28;20046;-74
2022/05/11 06:28:00;;;;;;;12.18;6.82;;;;;;;;;;4996836;28;20134;-75
2022/05/11 06:30:25;;;;;;;14.25;7.20;;;;;;;;;;5009101;28;20038;-74
2022/05/11 06:32:51;;;;;;;20.58;8.05;;;;;;;;;;4994953;28;20483;-74
2022/05/11 06:35:17;;;;;;;17.33;7.85;;;;;;;;;;4994356;28;20480;-75
2022/05/11 06:37:42;;;;;;;13.45;7.07;;;;;;;;;;5009410;28;20061;-75
2022/05/11 06:40:08;;;;;;;12.95;8.30;;;;;;;;;;4994542;28;20536;-74
2022/05/11 06:42:34;;;;;;;16.58;8.70;;;;;;;;;;5009668;28;20041;-75
2022/05/11 06:44:59;;;;;;;13.73;7.55;;;;;;;;;;5010171;28;20078;-75
2022/05/11 06:47:25;;;;;;;17.10;7.97;;;;;;;;;;5009467;28;20045;-74
2022/05/11 06:49:50;;;;;;;12.15;7.85;;;;;;;;;;4994415;28;20271;-73
2022/05/11 06:52:17;;;;;;;15.38;8.40;;;;;;;;;;4994011;28;20042;-74
2022/05/11 07:00:11;;;;;;;19.25;9.00;;;;;;;;;;4994240;28;20030;-73
2022/05/11 07:02:37;;;;;;;19.25;9.45;;;;;;;;;;4994242;28;20034;-73
2022/05/11 07:05:07;;;;;;;16.20;10.30;;;;;;;14.04;nan;101023.59;5008633;28;20108;-75
2022/05/11 07:07:33;;;;;;;18.98;10.20;;;;;;;;;;4994166;28;20038;-76
2022/05/11 07:09:58;;;;;;;23.63;10.07;;;;;;;;;;4992225;28;20049;-76
2022/05/11 07:12:32;;;;;;;14.30;10.07;;;;;;;;;;4993879;28;20129;-76
2022/05/11 07:14:59;;;;;;;24.48;10.38;;;;;;;;;;4993820;28;20327;-75
2022/05/11 07:17:26;;;;;;;17.80;10.02;;;;;;;;;;4993842;28;20052;-75
2022/05/11 07:19:52;;;;;;;13.75;9.00;;;;;;;;;;4993414;28;20077;-75
2022/05/11 07:22:17;;;;;;;16.65;10.15;;;;;;;;;;4993838;28;20050;-75
2022/05/11 07:24:43;;;;;;;21.38;10.45;;;;;;;;;;4994118;28;20081;-76
2022/05/11 07:27:08;;;;;;;19.60;10.32;;;;;;;;;;4993716;28;20088;-75
2022/05/11 07:29:33;;;;;;;17.40;11.35;;;;;;;;;;5008923;28;20041;-75
2022/05/11 07:31:59;;;;;;;16.95;11.30;;;;;;;;;;4995130;28;20524;-74
2022/05/11 07:34:24;;;;;;;17.63;10.83;;;;;;;;;;4993994;28;20477;-74
2022/05/11 07:36:54;;;;;;;19.27;11.20;;;;;;;;;;4994319;28;20271;-75
2022/05/11 07:39:19;;;;;;;19.67;11.82;;;;;;;;;;4993723;28;20038;-75
2022/05/11 07:41:44;;;;;;;17.27;11.98;;;;;;;;;;4991920;28;20499;-76
2022/05/11 07:44:09;;;;;;;20.37;11.50;;;;;;;;;;4994970;28;20459;-76
2022/05/11 07:46:35;;;;;;;19.70;11.67;;;;;;;;;;4973726;28;20035;-76
2022/05/11 07:49:01;;;;;;;20.17;11.85;;;;;;;;;;4990760;28;20097;-75
2022/05/11 07:51:26;;;;;;;17.30;11.35;;;;;;;;;;5007747;28;20172;-76
2022/05/11 07:53:52;;;;;;;20.97;11.87;;;;;;;;;;4993304;28;20121;-75
2022/05/11 08:01:45;;;;;;;20.52;10.88;;;;;;;;;;4993385;28;20031;-76
2022/05/11 08:04:10;;;;;;;18.07;12.03;;;;;;;;;;5008000;28;20113;-76
2022/05/11 08:06:36;;;;;;;18.02;12.82;;;;;;;;;;4994044;28;20891;-75
2022/05/11 08:09:02;;;;;;;17.88;12.65;;;;;;;;;;5004393;28;20092;-75
2022/05/11 08:11:27;;;;;;;19.27;11.70;;;;;;;;;;5033068;28;20038;-76
2022/05/11 08:13:54;;;;;;;19.70;12.90;;;;;;;;;;5017384;28;20018;-75
2022/05/11 08:16:19;;;;;;;22.80;12.65;;;;;;;17.45;nan;100931.34;5017631;28;20030;-76
2022/05/11 08:18:45;;;;;;;20.73;11.63;;;;;;;;;;5013440;28;20023;-75
2022/05/11 08:21:10;;;;;;;26.13;12.38;;;;;;;;;;4997644;28;20057;-76
2022/05/11 08:23:35;;;;;;;15.43;11.57;;;;;;;;;;5015671;28;20262;-75
2022/05/11 08:26:01;;;;;;;26.65;12.82;;;;;;;;;;5032209;28;20043;-75
2022/05/11 08:28:26;;;;;;;14.67;10.03;;;;;;;;;;5022138;28;20033;-74
2022/05/11 08:33:38;;;;;;;21.27;10.43;;;;;;;;;;5017103;28;20078;-75
2022/05/11 08:36:06;;;;;;;23.80;9.63;;;;;;;;;;5025544;28;20031;-76
2022/05/11 08:38:32;;;;;;;17.27;11.45;;;;;;;;;;5016165;28;20034;-75
2022/05/11 08:40:57;;;;;;;18.98;9.73;;;;;;;;;;5011211;28;20089;-76
2022/05/11 08:43:23;;;;;;;17.83;10.33;;;;;;;;;;4992612;28;20034;-76
2022/05/11 08:45:51;;;;;;;17.52;10.60;;;;;;;;;;4993140;28;20125;-76
2022/05/11 08:48:35;;;;;;;15.35;10.90;;;;;;;18.89;nan;100962.81;4990624;28;20045;-76
2022/05/11 08:51:01;;;;;;;18.27;10.15;;;;;;;;;;4992901;28;20034;-76
2022/05/11 08:53:39;;;;;;;16.80;10.13;;;;;;;19.06;nan;100969.75;4992520;28;20042;-76
2022/05/11 08:56:16;;;;;;;17.77;9.75;;;;;;;19.19;nan;100960.38;5007502;28;20537;-76
2022/05/11 08:58:52;;;;;;;13.82;10.35;;;;;;;19.31;nan;100929.66;4992537;28;20416;-75
2022/05/11 09:01:20;;;;;;;15.75;10.15;;;;;;;;;;4995908;28;20038;-75
2022/05/11 09:03:52;;;;;;;17.73;9.00;;;;;;;19.51;nan;100987.59;4994928;28;20045;-76
2022/05/11 09:06:30;;;;;;;16.90;10.07;;;;;;;19.59;nan;100954.16;4996062;28;20049;-75
2022/05/11 09:08:58;;;;;;;29.38;10.90;;;;;;;19.72;nan;100963.50;4996187;28;20416;-75
2022/05/11 09:11:35;;;;;;;14.90;9.68;;;;;;;19.83;nan;100956.25;5010918;28;20073;-77
2022/05/11 09:14:02;;;;;;;16.40;9.30;;;;;;;19.91;nan;100963.72;4996947;28;20556;-76
2022/05/11 09:16:41;;;;;;;17.40;8.88;;;;;;;20.01;nan;100971.69;4994148;28;20038;-76
2022/05/11 09:19:17;;;;;;;;;;;;;;;20.13;nan;100972.16;4996203;28;20395;-79
2022/05/11 09:22:10;;;;;;;13.18;8.38;;;;;;;20.22;nan;100958.22;5011529;28;20260;-77
2022/05/11 09:24:51;;;;;;;14.32;7.32;;;;;;;20.36;nan;100943.16;4996260;28;20030;-78
2022/05/11 09:27:24;;;;;;;26.27;10.00;;;;;;;20.47;nan;100973.31;4994841;28;20042;-77
2022/05/11 09:30:14;;;;;;;8.80;6.63;;;;;;;20.55;nan;100957.50;5012974;28;20064;-76
2022/05/11 09:32:42;;;;;;;11.48;7.22;;;;;;;20.57;nan;100998.19;4990489;28;20121;-77
2022/05/11 09:35:22;;;;;;;17.30;8.17;;;;;;;20.70;nan;101018.16;4993147;28;20389;-78
2022/05/11 09:37:57;;;;;;;12.75;7.38;;;;;;;20.76;nan;101010.91;5003123;28;20061;-77
2022/05/11 09:40:23;;;;;;;11.88;7.00;;;;;;;;;;5006795;28;20118;-77
2022/05/11 09:42:58;;;;;;;7.72;6.40;;;;;;;;;;4997490;28;20088;-78
2022/05/11 09:45:41;;;;;;;13.85;6.07;;;;;;;21.06;nan;100961.66;4979313;28;20109;-76
2022/05/11 09:48:13;;;;;;;8.98;5.93;;;;;;;21.11;nan;100950.13;5003232;28;20095;-77
2022/05/11 09:50:40;;;;;;;9.15;5.70;;;;;;;21.11;nan;100990.28;4996804;28;20036;-79
2022/05/11 09:53:22;;;;;;;12.30;6.25;;;;;;;21.27;nan;100964.97;5012531;28;20030;-77
2022/05/11 09:55:48;;;;;;;7.35;5.47;;;;;;;21.35;nan;100955.50;5011875;28;20040;-76
2022/05/11 09:58:31;;;;;;;12.05;6.90;;;;;;;21.47;nan;100949.78;4998667;28;20042;-78
2022/05/11 10:01:13;;;;;;;10.07;5.97;;;;;;;21.52;nan;100953.22;5009219;28;20046;-76
2022/05/11 10:03:46;;;;;;;8.60;5.32;;;;;;;21.58;nan;100943.25;4977185;28;20492;-78
2022/05/11 10:06:16;;;;;;;9.68;5.60;;;;;;;21.72;nan;100932.66;4993386;28;20042;-78
2022/05/11 10:08:48;;;;;;;7.05;5.25;;;;;;;21.82;nan;100959.31;4995986;28;20121;-78
2022/05/11 10:11:28;;;;;;;8.48;5.35;;;;;;;21.87;nan;100943.16;4993516;28;21443;-78
2022/05/11 10:21:50;;;;;;;6.55;4.65;;;;;;;21.96;nan;100959.44;4993528;28;20058;-77
2022/05/11 10:22:39;;;;;;;8.80;5.00;;;;;;;22.19;nan;100922.91;4986183;28;20393;-78
2022/05/11 10:25:41;;;;;;;7.15;4.97;;;;;;;22.30;nan;100943.16;4995761;28;20476;-78
2022/05/11 10:28:40;;;;;;;9.60;4.88;;;;;;;22.40;nan;100961.78;4947908;28;20038;-78
2022/05/11 10:31:19;;;;;;;8.25;4.30;;;;;;;22.55;nan;100946.56;5002601;28;20679;-78
2022/05/11 10:33:58;;;;;;;7.28;4.65;;;;;;;22.63;nan;100949.38;4975136;28;20131;-76
2022/05/11 10:36:42;;;;;;;;;;;;;;;22.73;nan;100935.00;4991279;28;20031;-79
2022/05/11 10:39:33;;;;;;;9.13;4.00;;;;;;;22.85;nan;100932.66;4987161;28;20349;-78
2022/05/11 10:42:12;;;;;;;7.82;4.57;;;;;;;23.00;nan;100938.88;4996241;28;20034;-77
2022/05/11 10:44:43;;;;;;;7.38;4.60;;;;;;;23.09;nan;100934.44;4996053;28;20487;-78
2022/05/11 10:47:32;;;;;;;5.15;4.35;;;;;;;23.20;nan;100938.53;4994862;28;20096;-77
2022/05/11 10:50:23;;;;;;;5.90;4.50;;;;;;;23.22;nan;100936.31;4995192;28;20046;-78
2022/05/11 10:53:14;;;;;;;8.63;4.50;;;;;;;23.23;nan;100935.25;4991583;28;20035;-80
2022/05/11 10:55:52;;;;;;;6.90;4.20;;;;;;;23.27;nan;100932.75;4975727;28;20508;-77
2022/05/11 10:58:29;;;;;;;7.87;4.50;;;;;;;23.34;nan;100922.41;4990510;28;20054;-78
2022/05/11 11:01:15;;;;;;;9.43;4.20;;;;;;;23.42;nan;100940.53;4977176;28;20031;-78
2022/05/11 11:03:59;;;;;;;9.52;4.15;;;;;;;23.52;nan;100916.13;4996664;28;20085;-78
2022/05/11 11:09:42;;;;;;;7.20;4.00;;;;;;;23.64;nan;100933.66;4995676;28;20117;-77
2022/05/11 11:12:39;;;;;;;8.50;4.10;;;;;;;23.68;nan;100966.91;4957285;28;20046;-77
2022/05/11 11:15:18;;;;;;;6.28;3.88;;;;;;;23.68;nan;100916.63;4968590;28;20046;-76
2022/05/11 11:17:46;;;;;;;6.97;3.47;;;;;;;23.73;nan;100923.81;4993375;28;20432;-77
2022/05/11 11:20:17;;;;;;;12.07;3.83;;;;;;;23.73;nan;100918.44;5004573;28;20113;-77
2022/05/11 11:23:02;;;;;;;9.10;3.50;;;;;;;23.76;nan;100856.00;5009541;28;20042;-79
2022/05/11 11:25:43;;;;;;;7.65;3.53;;;;;;;23.81;nan;100925.03;4993844;28;20030;-77
2022/05/11 11:28:13;;;;;;;8.07;3.67;;;;;;;23.86;nan;100898.81;5003625;28;20046;-77
2022/05/11 11:31:00;;;;;;;7.70;3.50;;;;;;;23.90;nan;100926.69;5005814;28;20042;-76
2022/05/11 11:33:28;;;;;;;9.45;3.60;;;;;;;23.86;nan;100906.88;5007728;28;20046;-78
2022/05/11 11:35:59;;;;;;;11.05;4.00;;;;;;;23.96;nan;100903.16;5007455;28;20117;-79
2022/05/11 11:38:45;;;;;;;5.10;3.70;;;;;;;24.02;nan;100901.97;4988143;28;20062;-79
2022/05/11 11:41:28;;;;;;;8.10;4.35;;;;;;;23.97;nan;100953.97;5006358;28;20439;-79
2022/05/11 11:44:12;;;;;;;5.13;3.78;;;;;;;23.98;nan;100904.44;5004921;28;20065;-79
2022/05/11 11:46:44;;;;;;;7.85;3.95;;;;;;;23.98;nan;100887.53;5011592;28;20053;-79
2022/05/11 11:49:19;;;;;;;7.32;3.60;;;;;;;23.99;nan;100902.56;4996925;28;20399;-79
2022/05/11 11:52:04;;;;;;;8.05;3.63;;;;;;;23.93;nan;100909.16;4996056;28;20049;-71
2022/05/11 11:54:39;;;;;;;8.60;3.55;;;;;;;23.99;nan;100911.44;5011275;28;20026;-72
2022/05/11 11:57:06;;;;;;;8.13;3.80;;;;;;;24.03;nan;100895.47;5017038;28;20033;-71
2022/05/11 11:59:42;;;;;;;7.80;3.40;;;;;;;24.12;nan;100890.97;5017093;28;20026;-71
2022/05/11 12:02:25;;;;;;;10.93;3.35;;;;;;;24.18;nan;100911.28;5015867;28;20042;-70
2022/05/11 12:05:27;;;;;;;9.75;2.88;;;;;;;24.29;nan;100871.47;5017496;28;20598;-78
2022/05/11 12:16:53;;;;;;;7.63;3.28;;;;;;;24.47;nan;100874.31;4999923;28;20046;-72
2022/05/11 12:19:20;;;;;;;5.13;3.05;;;;;;;24.47;nan;100868.91;4998020;28;20057;-72
2022/05/11 12:21:56;;;;;;;6.82;3.50;;;;;;;24.51;nan;100869.91;4988109;28;20035;-72
2022/05/11 12:24:25;;;;;;;7.18;3.42;;;;;;;;;;4994417;28;20150;-73
2022/05/11 12:26:57;;;;;;;5.25;3.22;;;;;;;24.55;nan;100878.97;4998064;28;20069;-73
2022/05/11 12:32:08;;;;;;;8.50;3.72;;;;;;;24.44;nan;100869.50;4997672;28;20038;-73
2022/05/11 12:34:43;;;;;;;5.72;3.20;;;;;;;24.40;nan;100853.19;4997865;28;20080;-73
2022/05/11 12:37:31;;;;;;;6.90;3.47;;;;;;;24.46;nan;100856.53;5009337;28;20037;-74
2022/05/11 12:39:59;;;;;;;8.70;3.40;;;;;;;24.51;nan;100862.63;4999074;28;20472;-80
2022/05/11 12:42:40;;;;;;;5.28;3.13;;;;;;;24.62;nan;100861.25;5013342;28;20039;-79
2022/05/11 12:45:09;;;;;;;4.35;3.40;;;;;;;24.69;nan;100844.69;5015626;28;20026;-78
2022/05/11 12:47:39;;;;;;;5.18;3.33;;;;;;;24.73;nan;100859.09;4994478;28;20030;-76
2022/05/11 12:50:06;;;;;;;5.63;3.70;;;;;;;24.77;nan;100845.81;4992939;28;20038;-77
2022/05/11 12:52:32;;;;;;;8.35;3.50;;;;;;;24.89;nan;100866.78;4987772;28;20034;-75
2022/05/11 12:55:01;;;;;;;6.40;3.08;;;;;;;24.94;nan;100835.09;5006508;28;20121;-76
2022/05/11 12:57:39;;;;;;;5.05;3.50;;;;;;;25.04;nan;100815.16;4989683;28;20034;-77
2022/05/11 13:00:19;;;;;;;4.93;3.20;;;;;;;25.09;nan;100839.28;4993611;28;20058;-76
2022/05/11 13:02:45;;;;;;;5.57;3.10;;;;;;;25.12;nan;100840.59;4992437;28;20040;-77
2022/05/11 13:05:17;;;;;;;7.13;3.15;;;;;;;25.12;nan;100854.06;4993178;28;20137;-76
2022/05/11 13:07:52;;;;;;;4.80;3.55;;;;;;;25.08;nan;100845.78;5007683;28;20027;-77
2022/05/11 13:10:40;;;;;;;5.20;3.20;;;;;;;24.96;nan;100832.13;4988717;28;20250;-76
2022/05/11 13:13:20;;;;;;;7.95;3.00;;;;;;;24.95;nan;100830.50;4999826;28;20057;-77
2022/05/11 13:15:47;;;;;;;4.63;3.42;;;;;;;25.00;nan;100830.41;4991232;28;20042;-78
2022/05/11 13:18:26;;;;;;;5.00;3.15;;;;;;;24.81;nan;100828.72;4990868;28;20031;-77
2022/05/11 13:20:53;;;;;;;5.35;2.92;;;;;;;24.90;nan;100822.56;4983495;28;20045;-77
2022/05/11 13:23:48;;;;;;;7.20;3.25;;;;;;;24.96;nan;100824.81;4990904;28;20531;-77
2022/05/11 13:26:43;;;;;;;4.35;2.92;;;;;;;25.03;nan;100814.38;4991662;28;20489;-77
2022/05/11 13:29:23;;;;;;;7.22;3.40;;;;;;;25.02;nan;100807.41;4995622;28;20229;-77
2022/05/11 13:32:09;;;;;;;10.63;3.50;;;;;;;25.02;nan;100807.41;5007737;28;20042;-77
2022/05/11 13:34:41;;;;;;;5.10;3.70;;;;;;;24.99;nan;100766.81;4992463;28;20030;-78
2022/05/11 13:37:24;;;;;;;5.82;2.90;;;;;;;24.96;nan;100792.50;4994220;28;20101;-76
2022/05/11 13:39:50;;;;;;;4.60;2.70;;;;;;;24.93;nan;100919.75;4987278;28;20034;-76
2022/05/11 13:42:21;;;;;;;7.82;3.17;;;;;;;25.07;nan;100786.81;5004373;28;20042;-77
2022/05/11 13:45:04;;;;;;;6.85;2.55;;;;;;;25.14;nan;100793.34;5005576;28;21042;-77
2022/05/11 13:50:35;;;;;;;3.92;2.40;;;;;;;25.17;nan;100784.66;4986905;28;20039;-78
2022/05/11 13:53:12;;;;;;;7.18;2.72;;;;;;;25.28;nan;100793.22;4990617;28;20037;-72
2022/05/11 13:55:42;;;;;;;3.58;2.90;;;;;;;25.33;nan;100819.25;5009521;28;20030;-69
2022/05/11 13:58:28;;;;;;;4.72;2.72;;;;;;;25.36;nan;100780.91;4994913;28;20034;-70
2022/05/11 14:01:16;;;;;;;3.85;2.70;;;;;;;25.31;nan;100789.09;4993288;28;20030;-71
2022/05/11 14:03:51;;;;;;;5.97;2.88;;;;;;;25.22;nan;100802.59;5009313;28;20054;-73
2022/05/11 14:06:23;;;;;;;3.13;2.83;;;;;;;25.24;nan;100790.38;4994690;28;20121;-72
2022/05/11 14:08:49;;;;;;;5.82;3.03;;;;;;;25.25;nan;100775.00;4991284;28;20034;-77
2022/05/11 14:11:17;;;;;;;7.28;3.22;;;;;;;25.25;nan;100783.88;5000394;28;20042;-77
2022/05/11 14:13:43;;;;;;;6.47;3.35;;;;;;;25.23;nan;100772.59;4991703;28;20057;-75
2022/05/11 14:16:11;;;;;;;3.67;3.22;;;;;;;25.22;nan;100781.81;4988033;28;20033;-78
2022/05/11 14:18:47;;;;;;;5.75;2.85;;;;;;;25.20;nan;100770.53;4989521;28;20039;-78
2022/05/11 14:21:13;;;;;;;3.95;2.80;;;;;;;25.19;nan;100820.19;5002112;28;20575;-77